Time;durP1;ratioP1;P1;durP2;ratioP2;P2;SDS_P1;SDS_P2;PMS_P1;PMS_P2;Temp;Humidity;BMP_temperature;BMP_pressure;BME280_temperature;BME280_humidity;BME280_pressure;Samples;Min_cycle;Max_cycle;Signal;HPM_P1;HPM_P2
2021/03/19 00:01:06;;;;;;;13.60;3.08;;;;;;;;;;5006025;28;20571;-78
2021/03/19 00:03:32;;;;;;;12.75;2.72;;;;;;;;;;5010305;28;20121;-79
2021/03/19 00:05:59;;;;;;;9.88;2.05;;;;;;;;;;5010010;28;20383;-79
2021/03/19 00:08:25;;;;;;;11.52;2.40;;;;;;;;;;5008563;28;20567;-79
2021/03/19 00:10:51;;;;;;;12.80;3.33;;;;;;;;;;4990120;28;20137;-80
2021/03/19 00:13:18;;;;;;;13.15;2.55;;;;;;;;;;5002247;28;20042;-78
2021/03/19 00:15:44;;;;;;;16.20;2.58;;;;;;;;;;5006821;28;20176;-74
2021/03/19 00:18:10;;;;;;;11.73;2.33;;;;;;;;;;5008853;28;20049;-77
2021/03/19 00:20:41;;;;;;;10.60;2.30;;;;;;;;;;4987704;28;20509;-78
2021/03/19 00:23:08;;;;;;;14.27;2.55;;;;;;;;;;4999559;28;20053;-78
2021/03/19 00:25:35;;;;;;;8.90;2.22;;;;;;;;;;5010309;28;20124;-77
2021/03/19 00:28:01;;;;;;;15.43;2.60;;;;;;;;;;5010390;28;20117;-80
2021/03/19 00:30:28;;;;;;;10.82;2.08;;;;;;;;;;4975650;28;20520;-79
2021/03/19 00:32:54;;;;;;;13.02;2.40;;;;;;;;;;5009925;28;20042;-81
2021/03/19 00:35:20;;;;;;;14.93;2.38;;;;;;;;;;5011215;28;20045;-81
2021/03/19 00:37:46;;;;;;;17.23;3.10;;;;;;;;;;5010646;28;20125;-79
2021/03/19 00:40:14;;;;;;;16.55;2.38;;;;;;;;;;5010101;28;20100;-81
2021/03/19 00:42:40;;;;;;;13.52;2.42;;;;;;;;;;4995505;28;20050;-81
2021/03/19 00:45:08;;;;;;;11.35;2.60;;;;;;;;;;5007119;28;20133;-80
2021/03/19 00:47:34;;;;;;;11.23;2.53;;;;;;;;;;5009395;28;20046;-81
2021/03/19 00:50:01;;;;;;;13.10;2.83;;;;;;;;;;4991579;28;20092;-80
2021/03/19 00:52:27;;;;;;;14.60;3.40;;;;;;;;;;5010492;28;20211;-81
2021/03/19 00:54:53;;;;;;;7.82;3.88;;;;;;;;;;5006841;28;20092;-81
2021/03/19 00:57:19;;;;;;;14.88;4.05;;;;;;;;;;5009611;28;20397;-81
2021/03/19 00:59:45;;;;;;;15.65;3.50;;;;;;;;;;4990875;28;20038;-81
2021/03/19 01:02:12;;;;;;;11.88;3.45;;;;;;;;;;5009259;28;20435;-80
2021/03/19 01:04:38;;;;;;;15.63;3.33;;;;;;;;;;4993219;28;20120;-81
2021/03/19 01:07:04;;;;;;;12.40;4.07;;;;;;;;;;5010038;28;20050;-79
2021/03/19 01:09:30;;;;;;;9.55;3.75;;;;;;;;;;5011960;28;20048;-80
2021/03/19 01:11:56;;;;;;;11.27;4.20;;;;;;;;;;5008045;28;20042;-80
2021/03/19 01:14:22;;;;;;;13.30;3.78;;;;;;;;;;5008606;28;20049;-81
2021/03/19 01:16:48;;;;;;;12.27;2.85;;;;;;;;;;5008401;28;20041;-81
2021/03/19 01:19:15;;;;;;;11.68;3.42;;;;;;;;;;5008454;28;20072;-80
2021/03/19 01:21:41;;;;;;;13.57;3.80;;;;;;;;;;5008936;28;20040;-79
2021/03/19 01:24:08;;;;;;;18.10;4.20;;;;;;;;;;5002627;28;20049;-78
2021/03/19 01:26:34;;;;;;;12.20;3.60;;;;;;;;;;4986037;28;20463;-80
2021/03/19 01:29:00;;;;;;;11.95;3.95;;;;;;;;;;5010444;28;20038;-80
2021/03/19 01:31:26;;;;;;;9.82;3.03;;;;;;;;;;4991786;28;20048;-80
2021/03/19 01:33:53;;;;;;;12.52;2.80;;;;;;;;;;5009476;28;20049;-80
2021/03/19 01:36:19;;;;;;;15.20;3.40;;;;;;;;;;4989709;28;20052;-80
2021/03/19 01:38:45;;;;;;;15.73;3.17;;;;;;;;;;5009614;28;20049;-80
2021/03/19 01:41:11;;;;;;;13.68;3.42;;;;;;;;;;5010494;28;20400;-80
2021/03/19 01:43:39;;;;;;;12.57;3.17;;;;;;;;;;5009315;28;20489;-80
2021/03/19 01:46:05;;;;;;;18.55;3.38;;;;;;;;;;4991074;28;20049;-81
2021/03/19 01:48:50;;;;;;;15.48;3.05;;;;;;;;;;5008797;28;20062;-78
2021/03/19 01:51:35;;;;;;;13.07;3.50;;;;;;;;;;5006674;28;20072;-81
2021/03/19 01:54:20;;;;;;;9.82;3.20;;;;;;;;;;5007167;28;20050;-80
2021/03/19 01:57:04;;;;;;;18.95;2.80;;;;;;;;;;5005447;28;20346;-81
2021/03/19 01:59:50;;;;;;;15.48;3.67;;;;;;;;;;4990653;28;20042;-80
2021/03/19 02:02:35;;;;;;;17.02;3.60;;;;;;;;;;5007584;28;20042;-74
2021/03/19 02:05:20;;;;;;;14.85;3.90;;;;;;;;;;4992777;28;20050;-80
2021/03/19 02:08:04;;;;;;;16.13;3.88;;;;;;;;;;5006580;28;20045;-80
2021/03/19 02:10:49;;;;;;;20.88;3.55;;;;;;;;;;5009626;28;20045;-79
2021/03/19 02:13:34;;;;;;;15.63;3.42;;;;;;;;;;5007866;28;20493;-81
2021/03/19 02:16:19;;;;;;;16.13;3.45;;;;;;;;;;5010977;28;20037;-80
2021/03/19 02:19:04;;;;;;;18.50;3.80;;;;;;;;;;5009758;28;20041;-80
2021/03/19 02:21:48;;;;;;;13.73;3.72;;;;;;;;;;5008187;28;20092;-79
2021/03/19 02:24:34;;;;;;;17.45;3.33;;;;;;;;;;5009268;28;20034;-79
2021/03/19 02:27:19;;;;;;;12.63;3.40;;;;;;;;;;5013279;28;20109;-81
2021/03/19 02:30:04;;;;;;;16.13;4.70;;;;;;;;;;5011164;28;20045;-80
2021/03/19 02:32:31;;;;;;;15.57;3.08;;;;;;;;;;5009059;28;20052;-78
2021/03/19 02:35:02;;;;;;;11.27;3.25;;;;;;;;;;4993001;28;20046;-78
2021/03/19 02:37:30;;;;;;;13.20;3.17;;;;;;;;;;5010694;28;20041;-78
2021/03/19 02:39:56;;;;;;;14.60;3.65;;;;;;;;;;5003282;28;20049;-80
2021/03/19 02:42:25;;;;;;;16.67;3.47;;;;;;;;;;5014003;28;20053;-78
2021/03/19 02:44:51;;;;;;;25.30;3.72;;;;;;;;;;5000878;28;20045;-78
2021/03/19 02:47:17;;;;;;;13.52;2.85;;;;;;;;;;4977877;28;20050;-78
2021/03/19 02:49:44;;;;;;;10.88;3.20;;;;;;;;;;4994466;28;20082;-78
2021/03/19 02:52:10;;;;;;;31.52;5.38;;;;;;;;;;4993368;28;20049;-78
2021/03/19 02:54:36;;;;;;;11.57;3.10;;;;;;;;;;5012922;28;20045;-77
2021/03/19 02:57:02;;;;;;;12.52;3.00;;;;;;;;;;5010009;28;20081;-78
2021/03/19 02:59:28;;;;;;;11.52;2.88;;;;;;;;;;5009141;28;20034;-77
2021/03/19 03:01:55;;;;;;;11.68;3.45;;;;;;;;;;5009941;28;20053;-77
2021/03/19 03:04:22;;;;;;;15.40;3.40;;;;;;;;;;5007730;28;20159;-78
2021/03/19 03:06:50;;;;;;;10.77;3.03;;;;;;;;;;5010264;28;20099;-77
2021/03/19 03:09:19;;;;;;;11.27;3.03;;;;;;;;;;5011615;28;20042;-78
2021/03/19 03:11:45;;;;;;;9.98;3.25;;;;;;;;;;5013117;28;20061;-78
2021/03/19 03:14:13;;;;;;;12.77;3.55;;;;;;;;;;5013751;28;20081;-78
2021/03/19 03:16:42;;;;;;;17.98;3.50;;;;;;;;;;5010710;28;20034;-78
2021/03/19 03:19:11;;;;;;;14.32;3.85;;;;;;;;;;5010962;28;20121;-77
2021/03/19 03:21:38;;;;;;;11.52;2.83;;;;;;;;;;5009149;28;20050;-77
2021/03/19 03:24:05;;;;;;;12.50;3.15;;;;;;;;;;4995926;28;20045;-78
2021/03/19 03:26:32;;;;;;;7.78;3.60;;;;;;;;;;5009557;28;20070;-75
2021/03/19 03:28:59;;;;;;;20.00;3.28;;;;;;;;;;5012658;28;20049;-78
2021/03/19 03:31:26;;;;;;;14.15;3.80;;;;;;;;;;5009875;28;20045;-77
2021/03/19 03:33:53;;;;;;;24.15;3.70;;;;;;;;;;5010999;28;20054;-78
2021/03/19 03:36:20;;;;;;;16.80;5.15;;;;;;;;;;5009117;28;20058;-77
2021/03/19 03:38:47;;;;;;;15.13;3.85;;;;;;;;;;5011759;28;20455;-77
2021/03/19 03:41:15;;;;;;;14.40;4.13;;;;;;;;;;4979872;28;20049;-77
2021/03/19 03:43:42;;;;;;;23.55;4.53;;;;;;;;;;5011463;28;20124;-78
2021/03/19 03:46:11;;;;;;;17.15;4.03;;;;;;;;;;5010001;28;20062;-78
2021/03/19 03:48:38;;;;;;;16.13;4.78;;;;;;;;;;5012190;28;20073;-78
2021/03/19 03:51:06;;;;;;;18.23;5.28;;;;;;;;;;5010428;28;20104;-78
2021/03/19 03:53:34;;;;;;;20.02;4.90;;;;;;;;;;4990691;28;20049;-76
2021/03/19 03:56:01;;;;;;;18.25;5.00;;;;;;;;;;4992481;28;20111;-78
2021/03/19 03:58:28;;;;;;;24.67;5.90;;;;;;;;;;5012435;28;20046;-78
2021/03/19 04:00:55;;;;;;;27.15;5.45;;;;;;;;;;5009050;28;20095;-77
2021/03/19 04:03:21;;;;;;;29.48;6.82;;;;;;;;;;5011834;28;20058;-78
2021/03/19 04:05:48;;;;;;;23.50;6.28;;;;;;;;;;4992800;28;20054;-78
2021/03/19 04:08:17;;;;;;;27.55;4.88;;;;;;;;;;5009134;28;20054;-78
2021/03/19 04:10:45;;;;;;;27.80;4.55;;;;;;;;;;4992714;28;20057;-78
2021/03/19 04:13:11;;;;;;;9.88;2.95;;;;;;;;;;5013929;28;20116;-77
2021/03/19 04:15:39;;;;;;;23.00;5.22;;;;;;;;;;5011190;28;20057;-80
2021/03/19 04:18:07;;;;;;;17.77;4.18;;;;;;;;;;5010278;28;20104;-75
2021/03/19 04:20:34;;;;;;;21.17;4.18;;;;;;;;;;5009406;28;20054;-76
2021/03/19 04:23:01;;;;;;;14.02;3.75;;;;;;;;;;5007511;28;20058;-76
2021/03/19 04:25:28;;;;;;;15.38;4.55;;;;;;;;;;5011032;28;20049;-75
2021/03/19 04:27:56;;;;;;;15.60;3.78;;;;;;;;;;4991505;28;20112;-76
2021/03/19 04:30:34;;;;;;;24.30;4.43;;;;;;;;;;5008898;28;20501;-76
2021/03/19 04:33:01;;;;;;;21.38;4.03;;;;;;;;;;5006941;28;20469;-76
2021/03/19 04:35:29;;;;;;;22.63;5.28;;;;;;;;;;5008782;28;20413;-77
2021/03/19 04:37:58;;;;;;;19.92;4.50;;;;;;;;;;5008296;28;20132;-76
2021/03/19 04:40:26;;;;;;;18.00;4.63;;;;;;;;;;5009685;28;20565;-76
2021/03/19 04:42:53;;;;;;;23.52;5.03;;;;;;;;;;5010749;28;20456;-76
2021/03/19 04:45:20;;;;;;;19.08;5.35;;;;;;;;;;4991945;28;20606;-76
2021/03/19 04:47:47;;;;;;;26.33;6.10;;;;;;;;;;5009387;28;20046;-77
2021/03/19 04:50:15;;;;;;;18.48;5.22;;;;;;;;;;5009486;28;20046;-79
2021/03/19 04:52:42;;;;;;;17.63;4.50;;;;;;;;;;5006705;28;20543;-75
2021/03/19 04:55:08;;;;;;;19.83;5.28;;;;;;;;;;5008244;28;20100;-79
2021/03/19 04:57:35;;;;;;;21.33;5.53;;;;;;;;;;5009734;28;20053;-78
2021/03/19 05:00:03;;;;;;;27.60;5.88;;;;;;;;;;5009335;28;20341;-79
2021/03/19 05:02:50;;;;;;;28.52;5.65;;;;;;;;;;5009377;28;20512;-77
2021/03/19 05:05:18;;;;;;;23.48;5.43;;;;;;;;;;5008241;28;20100;-79
2021/03/19 05:07:45;;;;;;;22.13;5.00;;;;;;;;;;5008421;28;20120;-78
2021/03/19 05:10:12;;;;;;;24.05;6.30;;;;;;;;;;5007499;28;20159;-77
2021/03/19 05:12:39;;;;;;;20.13;4.53;;;;;;;;;;5010075;28;20058;-78
2021/03/19 05:15:06;;;;;;;19.40;4.85;;;;;;;;;;5009277;28;20049;-75
2021/03/19 05:17:34;;;;;;;20.45;5.25;;;;;;;;;;5007098;28;20115;-75
2021/03/19 05:20:01;;;;;;;16.75;5.07;;;;;;;;;;5005226;28;20441;-78
2021/03/19 05:22:27;;;;;;;21.42;5.22;;;;;;;;;;5007508;28;20050;-78
2021/03/19 05:24:54;;;;;;;33.88;5.90;;;;;;;;;;5009249;28;20497;-78
2021/03/19 05:27:21;;;;;;;26.23;6.03;;;;;;;;;;5009267;28;20395;-76
2021/03/19 05:29:47;;;;;;;29.05;6.50;;;;;;;;;;4988934;28;20099;-77
2021/03/19 05:32:14;;;;;;;29.13;5.57;;;;;;;;;;4975303;28;20100;-78
2021/03/19 05:34:41;;;;;;;18.70;5.20;;;;;;;;;;5009059;28;20579;-78
2021/03/19 05:37:07;;;;;;;25.25;5.57;;;;;;;;;;5008024;28;20284;-76
2021/03/19 05:39:34;;;;;;;20.48;6.00;;;;;;;;;;5007252;28;20046;-74
2021/03/19 05:42:01;;;;;;;23.08;6.05;;;;;;;;;;5009468;28;20099;-78
2021/03/19 05:44:27;;;;;;;17.73;5.40;;;;;;;;;;4993180;28;20493;-78
2021/03/19 05:46:54;;;;;;;25.23;6.82;;;;;;;;;;5008175;28;20065;-77
2021/03/19 05:49:25;;;;;;;21.35;6.28;;;;;;;;;;5007844;28;20049;-79
2021/03/19 05:51:56;;;;;;;21.67;7.40;;;;;;;;;;5006482;28;20080;-78
2021/03/19 05:54:28;;;;;;;28.98;7.35;;;;;;;;;;5006058;28;20050;-79
2021/03/19 05:57:04;;;;;;;21.35;7.53;;;;;;;;;;5008173;28;20398;-78
2021/03/19 05:59:31;;;;;;;27.10;7.65;;;;;;;;;;5007338;28;20095;-79
2021/03/19 06:01:58;;;;;;;22.60;6.75;;;;;;;;;;5003608;28;20049;-76
2021/03/19 06:04:26;;;;;;;18.52;6.80;;;;;;;;;;5003819;28;20050;-77
2021/03/19 06:06:54;;;;;;;22.05;7.57;;;;;;;;;;5007843;28;20485;-77
2021/03/19 06:09:41;;;;;;;23.38;7.47;;;;;;;;;;5008814;28;20050;-78
2021/03/19 06:12:13;;;;;;;23.92;7.88;;;;;;;;;;5009067;28;20046;-78
2021/03/19 06:14:50;;;;;;;13.65;6.45;;;;;;;;;;5011307;28;20076;-80
2021/03/19 06:17:26;;;;;;;28.35;7.60;;;;;;;;;;5004538;28;20544;-79
2021/03/19 06:19:53;;;;;;;13.18;5.35;;;;;;;;;;5002930;28;20045;-76
2021/03/19 06:22:20;;;;;;;15.60;5.15;;;;;;;;;;5005417;28;20042;-72
2021/03/19 06:24:53;;;;;;;16.35;5.43;;;;;;;;;;5006665;28;20146;-75
2021/03/19 06:28:00;;;;;;;16.80;4.75;;;;;;;;;;4991733;28;20057;-75
2021/03/19 06:30:46;;;;;;;11.63;5.57;;;;;;;;;;4988369;28;20129;-73
2021/03/19 06:33:12;;;;;;;13.32;5.40;;;;;;;;;;5001924;28;20049;-71
2021/03/19 06:35:40;;;;;;;12.90;5.90;;;;;;;;;;4995568;28;20038;-74
2021/03/19 06:38:26;;;;;;;10.95;5.05;;;;;;;;;;4987472;28;20120;-71
2021/03/19 06:41:29;;;;;;;11.93;4.88;;;;;;;;;;4991268;28;20504;-72
2021/03/19 06:44:21;;;;;;;13.60;4.82;;;;;;;;;;4988929;28;20050;-73
2021/03/19 06:47:27;;;;;;;13.95;5.10;;;;;;;;;;4989015;28;20139;-77
2021/03/19 06:50:26;;;;;;;14.55;4.28;;;;;;;;;;4988554;28;20155;-77
2021/03/19 06:53:17;;;;;;;10.18;4.47;;;;;;;;;;4987825;28;20054;-75
2021/03/19 06:56:14;;;;;;;10.10;4.30;;;;;;;;;;4978254;28;20061;-78
2021/03/19 06:59:16;;;;;;;12.50;4.20;;;;;;;;;;5001165;28;20140;-76
2021/03/19 07:02:02;;;;;;;11.65;3.83;;;;;;;;;;4988695;28;20084;-76
2021/03/19 07:05:07;;;;;;;11.70;4.32;;;;;;;;;;4988277;28;20082;-76
2021/03/19 07:08:05;;;;;;;11.20;4.43;;;;;;;;;;5000210;28;20057;-75
2021/03/19 07:11:07;;;;;;;9.55;4.35;;;;;;;;;;4990462;28;20818;-75
2021/03/19 07:14:11;;;;;;;10.77;3.50;;;;;;;;;;4981397;28;20061;-78
2021/03/19 07:17:16;;;;;;;9.35;4.40;;;;;;;;;;4989463;28;20042;-75
2021/03/19 07:20:02;;;;;;;12.80;3.90;;;;;;;;;;5006366;28;20038;-76
2021/03/19 07:22:46;;;;;;;8.93;4.00;;;;;;;;;;5006362;28;20382;-78
2021/03/19 07:25:33;;;;;;;10.10;4.10;;;;;;;;;;4985041;28;20054;-78
2021/03/19 07:28:26;;;;;;;8.18;3.88;;;;;;;;;;4991884;28;20417;-77
2021/03/19 07:30:52;;;;;;;8.60;3.80;;;;;;;;;;5007062;28;20058;-76
2021/03/19 07:33:21;;;;;;;8.05;4.00;;;;;;;;;;4988135;28;20084;-75
2021/03/19 07:36:06;;;;;;;10.55;3.72;;;;;;;;;;4988474;28;20048;-79
2021/03/19 07:38:55;;;;;;;10.38;4.45;;;;;;;;;;5004615;28;20049;-78
2021/03/19 07:41:44;;;;;;;10.90;3.78;;;;;;;;;;5008996;28;20080;-81
2021/03/19 07:44:32;;;;;;;7.53;3.70;;;;;;;;;;4985853;28;20049;-77
2021/03/19 07:47:18;;;;;;;9.35;4.32;;;;;;;;;;4988357;28;20484;-76
2021/03/19 07:50:11;;;;;;;7.95;3.70;;;;;;;;;;4991733;28;20061;-78
2021/03/19 07:53:03;;;;;;;9.10;3.63;;;;;;;;;;4998804;28;20084;-80
2021/03/19 07:55:56;;;;;;;9.27;3.70;;;;;;;;;;5002383;28;20141;-81
2021/03/19 07:58:55;;;;;;;7.95;3.42;;;;;;;;;;4992439;28;20053;-81
2021/03/19 08:01:41;;;;;;;6.50;3.25;;;;;;;;;;4991040;28;20053;-83
2021/03/19 08:04:27;;;;;;;8.45;3.38;;;;;;;;;;4991224;28;20042;-81
2021/03/19 08:07:16;;;;;;;8.32;3.53;;;;;;;;;;4989831;28;20133;-82
2021/03/19 08:10:10;;;;;;;7.13;3.45;;;;;;;;;;4988868;28;20092;-79
2021/03/19 08:12:59;;;;;;;10.70;3.35;;;;;;;;;;5007415;28;20069;-81
2021/03/19 08:15:51;;;;;;;6.05;3.42;;;;;;;;;;4981821;28;20104;-80
2021/03/19 08:18:44;;;;;;;8.45;3.65;;;;;;;;;;4991166;28;20049;-81
2021/03/19 08:21:23;;;;;;;7.80;3.30;;;;;;;;;;5000908;28;20542;-74
2021/03/19 08:24:09;;;;;;;5.88;3.20;;;;;;;;;;5003777;28;20062;-75
2021/03/19 08:27:20;;;;;;;7.53;3.55;;;;;;;;;;4988509;28;20066;-80
2021/03/19 08:30:07;;;;;;;7.30;3.15;;;;;;;;;;4989714;28;20057;-83
2021/03/19 08:32:57;;;;;;;5.45;2.90;;;;;;;;;;4981366;28;20057;-79
2021/03/19 08:35:43;;;;;;;5.72;2.60;;;;;;;;;;4983917;28;20077;-81
2021/03/19 08:38:29;;;;;;;9.80;2.88;;;;;;;;;;4997250;28;20409;-81
2021/03/19 08:41:35;;;;;;;3.75;2.60;;;;;;;;;;4997245;28;20038;-79
2021/03/19 08:44:23;;;;;;;8.50;3.30;;;;;;;;;;4991685;28;20049;-81
2021/03/19 08:47:29;;;;;;;6.35;2.50;;;;;;;;;;5003781;28;20111;-81
2021/03/19 08:50:21;;;;;;;4.30;2.65;;;;;;;;;;4996600;28;20046;-75
2021/03/19 08:53:13;;;;;;;4.13;2.55;;;;;;;;;;4994052;28;20133;-82
2021/03/19 08:56:02;;;;;;;5.03;2.35;;;;;;;;;;4983133;28;20053;-81
2021/03/19 08:58:50;;;;;;;6.07;2.72;;;;;;;;;;4997344;28;20140;-82
2021/03/19 09:01:51;;;;;;;4.10;2.38;;;;;;;;;;4995302;28;20477;-81
2021/03/19 09:04:55;;;;;;;5.20;2.22;;;;;;;;;;4995751;28;20915;-82
2021/03/19 09:07:22;;;;;;;5.07;2.22;;;;;;;;;;5010205;28;20060;-81
2021/03/19 09:10:34;;;;;;;2.30;1.70;;;;;;;;;;4997050;28;20417;-82
2021/03/19 09:13:22;;;;;;;4.07;1.50;;;;;;;;;;4978504;28;20049;-81
2021/03/19 09:15:49;;;;;;;5.97;1.65;;;;;;;;;;5025170;28;20049;-82
2021/03/19 09:18:39;;;;;;;4.97;2.05;;;;;;;;;;5017695;28;20045;-83
2021/03/19 09:21:28;;;;;;;3.03;1.75;;;;;;;;;;4985955;28;20054;-83
2021/03/19 09:24:19;;;;;;;5.80;2.05;;;;;;;;;;4995714;28;20045;-83
2021/03/19 09:27:24;;;;;;;4.93;1.80;;;;;;;;;;4996741;28;20042;-83
2021/03/19 09:30:26;;;;;;;2.85;1.60;;;;;;;;;;4983860;28;20080;-77
2021/03/19 09:33:32;;;;;;;2.97;2.08;;;;;;;;;;4997150;28;20421;-82
2021/03/19 09:36:37;;;;;;;4.45;1.88;;;;;;;;;;4997553;28;20053;-83
2021/03/19 09:39:23;;;;;;;;;;;;;;;;;;4983494;28;20065;-81
2021/03/19 09:41:51;;;;;;;6.10;1.60;;;;;;;;;;5012245;28;20266;-83
2021/03/19 09:44:35;;;;;;;1.98;1.40;;;;;;;;;;4993211;28;20060;-83
2021/03/19 09:47:17;;;;;;;4.97;1.40;;;;;;;;;;4992734;28;20045;-83
2021/03/19 09:49:44;;;;;;;4.18;1.70;;;;;;;;;;5010400;28;20336;-82
2021/03/19 09:52:17;;;;;;;4.55;1.38;;;;;;;;;;5010349;28;20080;-82
2021/03/19 09:54:44;;;;;;;3.30;1.40;;;;;;;;;;5011334;28;20054;-82
2021/03/19 09:57:22;;;;;;;3.13;1.70;;;;;;;;;;5009591;28;20050;-82
2021/03/19 09:59:56;;;;;;;3.58;1.40;;;;;;;;;;5011605;28;20057;-82
2021/03/19 10:02:26;;;;;;;4.57;1.60;;;;;;;;;;5007044;28;20120;-82
2021/03/19 10:04:52;;;;;;;2.65;1.08;;;;;;;;;;5011377;28;20082;-82
2021/03/19 10:07:42;;;;;;;7.05;1.27;;;;;;;;;;4981324;28;20046;-81
2021/03/19 10:10:31;;;;;;;2.70;1.30;;;;;;;;;;4982285;28;20049;-80
2021/03/19 10:13:19;;;;;;;1.88;1.10;;;;;;;;;;4996678;28;20049;-82
2021/03/19 10:16:06;;;;;;;2.15;1.10;;;;;;;;;;5017476;28;20061;-82
2021/03/19 10:18:52;;;;;;;2.40;1.27;;;;;;;;;;5002099;28;20049;-82
2021/03/19 10:21:40;;;;;;;3.45;1.20;;;;;;;;;;4995595;28;20042;-81
2021/03/19 10:24:27;;;;;;;5.88;1.23;;;;;;;;;;4981742;28;20103;-83
2021/03/19 10:27:03;;;;;;;6.43;1.50;;;;;;;;;;5009893;28;20056;-82
2021/03/19 10:29:34;;;;;;;2.60;1.05;;;;;;;;;;4991427;28;20420;-81
2021/03/19 10:32:03;;;;;;;2.47;1.20;;;;;;;;;;5013203;28;20072;-81
2021/03/19 10:34:45;;;;;;;3.00;0.85;;;;;;;;;;5003651;28;20050;-79
2021/03/19 10:37:38;;;;;;;3.72;1.50;;;;;;;;;;4974315;28;20520;-77
2021/03/19 10:40:35;;;;;;;4.05;1.92;;;;;;;;;;4987162;28;20584;-80
2021/03/19 10:43:24;;;;;;;3.53;1.67;;;;;;;;;;4995551;28;20030;-80
2021/03/19 10:45:55;;;;;;;4.28;2.00;;;;;;;;;;5009287;28;20050;-79
2021/03/19 10:48:36;;;;;;;4.05;2.00;;;;;;;;;;5011189;28;20068;-82
2021/03/19 10:51:29;;;;;;;3.38;1.95;;;;;;;;;;4976820;28;20046;-70
2021/03/19 10:53:58;;;;;;;6.07;1.70;;;;;;;;;;4991505;28;20045;-86
2021/03/19 10:56:26;;;;;;;4.30;1.95;;;;;;;;;;5009163;28;20429;-78
2021/03/19 10:58:56;;;;;;;5.22;1.50;;;;;;;;;;5012257;28;20072;-82
2021/03/19 11:01:39;;;;;;;3.35;1.90;;;;;;;;;;4994348;28;20070;-82
2021/03/19 11:04:32;;;;;;;7.53;1.52;;;;;;;;;;4997678;28;20337;-84
2021/03/19 11:06:59;;;;;;;2.65;1.25;;;;;;;;;;5011320;28;20120;-81
2021/03/19 11:09:27;;;;;;;2.38;1.23;;;;;;;;;;4998946;28;20390;-82
2021/03/19 11:11:58;;;;;;;3.65;1.00;;;;;;;;;;4996172;28;20042;-81
2021/03/19 11:14:27;;;;;;;4.72;1.67;;;;;;;;;;5007011;28;20396;-85
2021/03/19 11:16:55;;;;;;;2.40;0.80;;;;;;;;;;5014252;28;20064;-82
2021/03/19 11:19:23;;;;;;;2.92;1.15;;;;;;;;;;5011902;28;20084;-82
2021/03/19 11:21:56;;;;;;;2.88;0.90;;;;;;;;;;4996857;28;20034;-82
2021/03/19 11:24:25;;;;;;;3.63;0.93;;;;;;;;;;5016646;28;20105;-82
2021/03/19 11:26:56;;;;;;;3.25;0.90;;;;;;;;;;5011490;28;20481;-83
2021/03/19 11:29:43;;;;;;;6.43;0.90;;;;;;;;;;4996394;28;20045;-83
2021/03/19 11:32:09;;;;;;;1.75;0.70;;;;;;;;;;5012379;28;20072;-78
2021/03/19 11:34:40;;;;;;;3.38;1.70;;;;;;;;;;5009503;28;20403;-84
2021/03/19 11:37:31;;;;;;;5.22;0.90;;;;;;;;;;5005338;28;20053;-83
2021/03/19 11:40:16;;;;;;;2.20;0.93;;;;;;;;;;5003571;28;20042;-84
2021/03/19 11:42:45;;;;;;;4.22;0.80;;;;;;;;;;5005155;28;20096;-78
2021/03/19 11:45:11;;;;;;;5.72;0.70;;;;;;;;;;5005502;28;20041;-79
2021/03/19 11:47:40;;;;;;;4.13;0.70;;;;;;;;;;4985994;28;20042;-85
2021/03/19 11:50:22;;;;;;;2.88;0.60;;;;;;;;;;4996075;28;20046;-82
2021/03/19 11:52:51;;;;;;;1.30;0.47;;;;;;;;;;4986183;28;20361;-84
2021/03/19 11:55:30;;;;;;;2.08;0.50;;;;;;;;;;4992202;28;20084;-84
2021/03/19 11:58:18;;;;;;;1.73;0.45;;;;;;;;;;4995201;28;20045;-81
2021/03/19 12:00:44;;;;;;;2.95;0.38;;;;;;;;;;4994742;28;20115;-78
2021/03/19 12:03:14;;;;;;;1.17;0.40;;;;;;;;;;5010003;28;20204;-79
2021/03/19 12:05:41;;;;;;;1.13;0.43;;;;;;;;;;5006725;28;20049;-81
2021/03/19 12:08:07;;;;;;;4.38;0.50;;;;;;;;;;5013320;28;20389;-74
2021/03/19 12:10:53;;;;;;;2.78;0.50;;;;;;;;;;4993006;28;20439;-79
2021/03/19 12:13:20;;;;;;;3.28;0.30;;;;;;;;;;4995165;28;20038;-77
2021/03/19 12:15:46;;;;;;;1.05;0.30;;;;;;;;;;5007591;28;20033;-79
2021/03/19 12:18:15;;;;;;;0.73;0.35;;;;;;;;;;5008672;28;20041;-76
2021/03/19 12:20:41;;;;;;;2.47;0.25;;;;;;;;;;4982387;28;20049;-80
2021/03/19 12:23:27;;;;;;;2.95;0.22;;;;;;;;;;4986053;28;20132;-83
2021/03/19 12:25:54;;;;;;;3.70;0.28;;;;;;;;;;4992920;28;20038;-76
2021/03/19 12:28:22;;;;;;;2.25;0.50;;;;;;;;;;4994882;28;20038;-80
2021/03/19 12:30:49;;;;;;;3.13;0.47;;;;;;;;;;4991788;28;20041;-77
2021/03/19 12:33:15;;;;;;;0.40;0.30;;;;;;;;;;4999578;28;20038;-81
2021/03/19 12:35:42;;;;;;;4.13;0.40;;;;;;;;;;4980858;28;20061;-82
2021/03/19 12:38:10;;;;;;;2.70;0.38;;;;;;;;;;4979643;28;20042;-80
2021/03/19 12:40:36;;;;;;;1.60;0.32;;;;;;;;;;4990946;28;20034;-81
2021/03/19 12:43:03;;;;;;;2.47;0.30;;;;;;;;;;4994511;28;20059;-79
2021/03/19 12:45:32;;;;;;;0.93;0.50;;;;;;;;;;4998344;28;20038;-81
2021/03/19 12:47:58;;;;;;;1.00;0.20;;;;;;;;;;5005951;28;20033;-81
2021/03/19 12:50:27;;;;;;;3.35;0.30;;;;;;;;;;5008402;28;20121;-80
2021/03/19 12:52:54;;;;;;;0.50;0.28;;;;;;;;;;4991735;28;20096;-79
2021/03/19 12:55:22;;;;;;;1.95;0.20;;;;;;;;;;4997953;28;20058;-79
2021/03/19 12:57:48;;;;;;;1.40;0.22;;;;;;;;;;5002330;28;20442;-79
2021/03/19 13:00:25;;;;;;;1.77;0.30;;;;;;;;;;5001562;28;20030;-79
2021/03/19 13:02:51;;;;;;;4.03;0.40;;;;;;;;;;4989160;28;20121;-77
2021/03/19 13:05:18;;;;;;;0.43;0.20;;;;;;;;;;5003307;28;20065;-80
2021/03/19 13:08:05;;;;;;;1.98;0.28;;;;;;;;;;4980963;28;20548;-82
2021/03/19 13:10:33;;;;;;;0.55;0.20;;;;;;;;;;4998026;28;20390;-83
2021/03/19 13:13:19;;;;;;;1.70;0.30;;;;;;;;;;4987953;28;20424;-80
2021/03/19 13:16:05;;;;;;;2.67;0.50;;;;;;;;;;4989660;28;20046;-80
2021/03/19 13:18:51;;;;;;;0.65;0.30;;;;;;;;;;4989846;28;20498;-80
2021/03/19 13:21:18;;;;;;;0.60;0.20;;;;;;;;;;4981165;28;20466;-79
2021/03/19 13:23:44;;;;;;;1.45;0.20;;;;;;;;;;4990708;28;20121;-81
2021/03/19 13:26:10;;;;;;;1.85;0.40;;;;;;;;;;5000481;28;20033;-83
2021/03/19 13:28:56;;;;;;;1.08;0.20;;;;;;;;;;4994333;28;20165;-75
2021/03/19 13:31:23;;;;;;;2.47;0.20;;;;;;;;;;5008551;28;20050;-78
2021/03/19 13:33:51;;;;;;;1.38;0.30;;;;;;;;;;4983315;28;20034;-79
2021/03/19 13:36:38;;;;;;;1.15;0.30;;;;;;;;;;4985525;28;20095;-82
2021/03/19 13:39:26;;;;;;;0.98;0.40;;;;;;;;;;4981194;28;20441;-75
2021/03/19 13:42:12;;;;;;;2.00;0.30;;;;;;;;;;4983023;28;20071;-75
2021/03/19 13:44:39;;;;;;;0.80;0.20;;;;;;;;;;4988239;28;20346;-75
2021/03/19 13:47:06;;;;;;;1.88;0.30;;;;;;;;;;5007184;28;20037;-76
2021/03/19 13:49:33;;;;;;;1.85;0.20;;;;;;;;;;4988750;28;20058;-75
2021/03/19 13:52:00;;;;;;;2.10;0.20;;;;;;;;;;4980979;28;20041;-75
2021/03/19 13:54:27;;;;;;;2.75;0.40;;;;;;;;;;4999381;28;20081;-75
2021/03/19 13:57:03;;;;;;;1.73;0.30;;;;;;;;;;4999628;28;20057;-75
2021/03/19 13:59:29;;;;;;;2.38;0.40;;;;;;;;;;4990450;28;20073;-75
2021/03/19 14:01:56;;;;;;;2.38;0.60;;;;;;;;;;5001084;28;20036;-76
2021/03/19 14:04:23;;;;;;;4.38;0.80;;;;;;;;;;4990913;28;20058;-76
2021/03/19 14:06:49;;;;;;;2.80;0.70;;;;;;;;;;5005488;28;20066;-76
2021/03/19 14:09:16;;;;;;;3.25;0.77;;;;;;;;;;4998684;28;20245;-75
2021/03/19 14:11:42;;;;;;;2.13;0.80;;;;;;;;;;4993613;28;20125;-75
2021/03/19 14:14:09;;;;;;;4.57;1.00;;;;;;;;;;5002003;28;20054;-75
2021/03/19 14:16:35;;;;;;;3.60;0.90;;;;;;;;;;4994964;28;20113;-75
2021/03/19 14:19:02;;;;;;;2.78;0.80;;;;;;;;;;4996924;28;20062;-75
2021/03/19 14:21:28;;;;;;;4.53;1.10;;;;;;;;;;5007453;28;20096;-75
2021/03/19 14:23:54;;;;;;;5.22;1.15;;;;;;;;;;4993981;28;20583;-74
2021/03/19 14:26:21;;;;;;;4.30;1.10;;;;;;;;;;5009798;28;20477;-75
2021/03/19 14:28:47;;;;;;;3.63;1.27;;;;;;;;;;4983572;28;20049;-75
2021/03/19 14:31:18;;;;;;;7.45;1.75;;;;;;;;;;4986874;28;20045;-75
2021/03/19 14:33:44;;;;;;;4.68;1.10;;;;;;;;;;4996552;28;20085;-75
2021/03/19 14:36:10;;;;;;;3.75;1.30;;;;;;;;;;4998862;28;20026;-74
2021/03/19 14:38:37;;;;;;;7.35;1.75;;;;;;;;;;5008254;28;20141;-75
2021/03/19 14:41:03;;;;;;;3.78;1.50;;;;;;;;;;4985975;28;20378;-75
2021/03/19 14:43:29;;;;;;;3.95;1.30;;;;;;;;;;5009729;28;20184;-74
2021/03/19 14:45:56;;;;;;;3.75;1.27;;;;;;;;;;5004394;28;20045;-75
2021/03/19 14:48:27;;;;;;;4.97;1.13;;;;;;;;;;5010793;28;20054;-74
2021/03/19 14:50:54;;;;;;;3.42;1.33;;;;;;;;;;4994217;28;20124;-75
2021/03/19 14:53:20;;;;;;;3.30;0.90;;;;;;;;;;5006365;28;20057;-78
2021/03/19 14:55:48;;;;;;;5.38;1.30;;;;;;;;;;5002223;28;20068;-75
2021/03/19 14:58:15;;;;;;;6.15;1.05;;;;;;;;;;4993417;28;20062;-74
2021/03/19 15:00:43;;;;;;;4.45;1.05;;;;;;;;;;4994699;28;20490;-83
2021/03/19 15:03:12;;;;;;;4.22;1.42;;;;;;;;;;5014107;28;20034;-81
2021/03/19 15:05:38;;;;;;;3.47;1.40;;;;;;;;;;4982173;28;20399;-81
2021/03/19 15:08:05;;;;;;;3.45;1.10;;;;;;;;;;5009106;28;20034;-82
2021/03/19 15:10:33;;;;;;;5.63;1.10;;;;;;;;;;4997086;28;20038;-84
2021/03/19 15:12:59;;;;;;;8.15;1.60;;;;;;;;;;5012367;28;20038;-75
2021/03/19 15:15:25;;;;;;;5.28;1.38;;;;;;;;;;4994074;28;21471;-84
2021/03/19 15:17:52;;;;;;;5.63;1.40;;;;;;;;;;5001548;28;20046;-80
2021/03/19 15:20:20;;;;;;;8.02;1.42;;;;;;;;;;4995681;28;20049;-77
2021/03/19 15:22:46;;;;;;;5.72;1.50;;;;;;;;;;5010682;28;20034;-81